KHQZ

Mesquite Metro Airport

Mesquite, Texas, USA
METAR KHQZ 191450Z 19008KT 10SM CLR 28/22 A2991
Observed Flight Rules
Aug-19 @ 14:50 UTC (47 minutes ago) Visual Flight Rules
Wind Visibility Clouds
190° at 8 knots 10 miles
  • Clear skies
Temperatures Readings
Current 28°C / 82°F
Dewpoint 22°C / 72°F
Humidity 70%
Altimeter 29.91" Hg
Pressure 1013 hPa
Elevation 136
METAR KHQZ 191450Z 19008KT 10SM CLR 28/22 A2991
Observed Flight Rules
Aug-19 @ 14:50 UTC
(47 minutes ago)
VFR
Wind Visibility
190° at 8 knots 10 miles
Clouds
  • Clear skies
Temperature Dewpoint
28°C / 82°F 22°C / 72°F
Humidity Altimeter Pressure
70% 29.91" Hg 1013 hPa